Time;durP1;ratioP1;P1;durP2;ratioP2;P2;SDS_P1;SDS_P2;PMS_P1;PMS_P2;Temp;Humidity;BMP_temperature;BMP_pressure;BME280_temperature;BME280_humidity;BME280_pressure;Samples;Min_cycle;Max_cycle;Signal;HPM_P1;HPM_P2
2021/12/02 00:00:45;;;;;;;7.80;1.50;;;4.00;99.90;;;;;;5010157;28;20046;-37
2021/12/02 00:03:12;;;;;;;13.30;1.73;;;4.00;99.90;;;;;;5008259;28;20057;-36
2021/12/02 00:05:38;;;;;;;7.17;1.50;;;3.90;99.90;;;;;;5010808;28;20631;-37
2021/12/02 00:08:04;;;;;;;7.50;1.20;;;3.90;99.90;;;;;;5000497;28;20057;-36
2021/12/02 00:10:31;;;;;;;6.80;1.30;;;3.90;99.90;;;;;;5015230;28;20065;-37
2021/12/02 00:12:58;;;;;;;10.23;1.40;;;3.80;99.90;;;;;;5007652;28;20058;-36
2021/12/02 00:15:32;;;;;;;9.37;1.23;;;3.80;99.90;;;;;;5011536;28;20041;-36
2021/12/02 00:21:03;;;;;;;7.68;1.20;;;3.70;99.90;;;;;;5010410;28;20049;-35
2021/12/02 00:23:37;;;;;;;7.67;1.17;;;3.70;99.90;;;;;;5008920;28;20065;-37
2021/12/02 00:26:14;;;;;;;6.67;0.90;;;3.70;99.90;;;;;;5008365;28;20060;-36
2021/12/02 00:28:40;;;;;;;5.97;1.17;;;3.60;99.90;;;;;;5007798;28;20355;-37
2021/12/02 00:31:15;;;;;;;10.30;1.40;;;3.70;99.90;;;;;;5009602;28;20050;-36
2021/12/02 00:33:46;;;;;;;6.67;1.20;;;3.60;99.90;;;;;;5007339;28;20042;-36
2021/12/02 00:36:13;;;;;;;8.77;1.20;;;3.60;99.90;;;;;;5004045;28;20042;-38
2021/12/02 00:38:41;;;;;;;10.07;1.60;;;3.60;99.90;;;;;;5009761;28;20052;-34
2021/12/02 00:41:18;;;;;;;11.47;1.20;;;3.60;99.90;;;;;;5007542;28;20044;-35
2021/12/02 00:43:45;;;;;;;9.47;1.30;;;3.60;99.90;;;;;;5007956;28;20052;-35
2021/12/02 00:46:15;;;;;;;9.83;1.57;;;3.60;99.90;;;;;;5000930;28;20140;-37
2021/12/02 00:48:42;;;;;;;8.37;1.10;;;3.60;99.90;;;;;;5006833;28;20046;-36
2021/12/02 00:51:09;;;;;;;8.47;1.00;;;3.60;99.90;;;;;;5007822;28;20041;-37
2021/12/02 00:53:42;;;;;;;7.43;0.90;;;3.60;99.90;;;;;;5009343;28;20481;-37
2021/12/02 00:56:10;;;;;;;3.47;0.27;;;3.60;99.90;;;;;;5002536;28;20050;-37
2021/12/02 00:58:37;;;;;;;3.47;0.30;;;3.60;99.90;;;;;;5037656;28;20037;-35
2021/12/02 01:01:03;;;;;;;5.20;0.50;;;3.50;99.90;;;;;;5009817;28;20444;-36
2021/12/02 01:03:34;;;;;;;6.13;0.60;;;3.50;99.90;;;;;;5009430;28;20041;-36
2021/12/02 01:06:03;;;;;;;8.15;0.60;;;3.50;99.90;;;;;;5007893;28;20057;-36
2021/12/02 01:08:30;;;;;;;4.80;0.40;;;3.50;99.90;;;;;;4996617;28;20119;-37
2021/12/02 01:10:56;;;;;;;5.43;0.57;;;3.50;99.90;;;;;;5011158;28;20054;-35
2021/12/02 01:13:22;;;;;;;6.00;0.77;;;3.50;99.90;;;;;;5006732;28;20539;-36
2021/12/02 01:15:48;;;;;;;4.10;0.60;;;3.50;99.90;;;;;;5007373;28;20095;-37
2021/12/02 01:18:14;;;;;;;3.07;0.73;;;3.50;99.90;;;;;;4996634;28;20107;-36
2021/12/02 01:20:45;;;;;;;5.47;1.00;;;3.50;99.90;;;;;;5009808;28;20038;-38
2021/12/02 01:23:12;;;;;;;4.20;0.60;;;3.50;99.90;;;;;;5006888;28;20038;-36
2021/12/02 01:25:40;;;;;;;5.50;0.70;;;3.50;99.90;;;;;;5007202;28;20048;-36
2021/12/02 01:28:07;;;;;;;3.23;0.60;;;3.50;99.90;;;;;;5011200;28;20155;-37
2021/12/02 01:30:33;;;;;;;6.67;0.80;;;3.50;99.90;;;;;;5022230;28;20092;-36
2021/12/02 01:33:05;;;;;;;6.07;1.20;;;3.50;99.90;;;;;;5013402;28;20045;-36
2021/12/02 01:35:34;;;;;;;9.23;1.53;;;3.50;99.90;;;;;;4992634;28;20049;-37
2021/12/02 01:38:00;;;;;;;12.10;1.30;;;3.50;99.90;;;;;;4977123;28;20061;-35
2021/12/02 01:40:27;;;;;;;13.83;1.40;;;3.50;99.90;;;;;;4987107;28;20053;-37
2021/12/02 01:42:55;;;;;;;9.47;1.20;;;3.60;99.90;;;;;;4993351;28;20434;-36
2021/12/02 01:45:28;;;;;;;7.73;1.30;;;3.50;99.90;;;;;;5008104;28;20042;-36
2021/12/02 01:47:56;;;;;;;5.37;1.10;;;3.60;99.90;;;;;;4996196;28;20072;-35
2021/12/02 01:50:25;;;;;;;6.33;1.17;;;3.50;99.90;;;;;;5006678;28;20453;-37
2021/12/02 01:52:59;;;;;;;5.93;1.27;;;3.50;99.90;;;;;;5005144;28;20047;-36
2021/12/02 01:55:27;;;;;;;8.47;1.20;;;3.60;99.90;;;;;;5006712;28;20057;-37
2021/12/02 01:57:59;;;;;;;7.30;1.20;;;3.50;99.90;;;;;;4998502;28;20504;-36
2021/12/02 02:00:33;;;;;;;6.67;0.60;;;3.50;99.90;;;;;;5008962;28;20099;-36
2021/12/02 02:03:01;;;;;;;7.77;1.10;;;3.60;99.90;;;;;;5011314;28;20042;-36
2021/12/02 02:05:28;;;;;;;7.03;1.10;;;3.50;99.90;;;;;;5007592;28;20056;-37
2021/12/02 02:08:04;;;;;;;6.87;1.20;;;3.50;99.90;;;;;;5000302;28;20077;-36
2021/12/02 02:10:37;;;;;;;6.60;1.30;;;3.50;99.90;;;;;;5010181;28;20344;-37
2021/12/02 02:13:08;;;;;;;8.90;1.23;;;3.50;99.90;;;;;;5005932;28;20041;-36
2021/12/02 02:15:38;;;;;;;13.13;1.30;;;3.40;99.90;;;;;;5006257;28;20513;-36
2021/12/02 02:18:12;;;;;;;7.57;1.30;;;3.40;99.90;;;;;;4995795;28;20052;-36
2021/12/02 02:20:41;;;;;;;7.73;1.50;;;3.40;99.90;;;;;;5011464;28;20427;-36
2021/12/02 02:23:11;;;;;;;8.23;1.23;;;3.40;99.90;;;;;;5006144;28;20052;-36
2021/12/02 02:25:38;;;;;;;5.33;1.13;;;3.40;99.90;;;;;;5023491;28;20055;-36
2021/12/02 02:28:05;;;;;;;8.23;1.30;;;3.30;99.90;;;;;;4996077;28;20124;-36
2021/12/02 02:30:31;;;;;;;7.43;0.93;;;3.30;99.90;;;;;;5007844;28;20493;-35
2021/12/02 02:32:57;;;;;;;10.00;1.27;;;3.30;99.90;;;;;;5005390;28;20049;-36
2021/12/02 02:35:22;;;;;;;6.07;1.33;;;3.30;99.90;;;;;;5021838;28;20056;-36
2021/12/02 02:37:48;;;;;;;8.70;1.10;;;3.30;99.90;;;;;;4998992;28;20045;-36
2021/12/02 02:40:16;;;;;;;7.83;1.17;;;3.30;99.90;;;;;;5006692;28;20049;-37
2021/12/02 02:42:49;;;;;;;8.83;0.80;;;3.30;99.90;;;;;;5008118;28;20512;-36
2021/12/02 02:45:16;;;;;;;8.87;0.80;;;3.20;99.90;;;;;;5006479;28;20254;-37
2021/12/02 02:47:42;;;;;;;4.23;0.90;;;3.30;99.90;;;;;;4998422;28;20045;-35
2021/12/02 02:50:15;;;;;;;7.70;0.70;;;3.20;99.90;;;;;;5006284;28;20412;-35
2021/12/02 02:52:42;;;;;;;6.43;0.90;;;3.30;99.90;;;;;;5007218;28;20041;-36
2021/12/02 02:55:11;;;;;;;4.60;0.40;;;3.30;99.90;;;;;;5005918;28;20046;-36
2021/12/02 02:57:54;;;;;;;5.43;0.43;;;3.30;99.90;;;;;;4995109;28;20096;-35
2021/12/02 03:00:27;;;;;;;2.07;0.20;;;3.30;99.90;;;;;;5010620;28;20045;-36
2021/12/02 03:08:34;;;;;;;3.63;0.10;;;3.20;99.90;;;;;;4977987;28;20052;-37
2021/12/02 03:11:00;;;;;;;1.73;0.20;;;3.20;99.90;;;;;;4990407;28;20049;-37
2021/12/02 03:13:46;;;;;;;2.47;0.10;;;3.20;99.90;;;;;;5000714;28;20050;-37
2021/12/02 03:18:57;;;;;;;2.90;0.10;;;3.20;99.90;;;;;;5024090;28;20138;-36
2021/12/02 03:21:24;;;;;;;1.37;0.17;;;3.10;99.90;;;;;;5009536;28;20472;-36
2021/12/02 03:23:55;;;;;;;1.10;0.10;;;3.10;99.90;;;;;;5007626;28;20216;-35
2021/12/02 03:26:23;;;;;;;1.07;0.17;;;3.00;99.90;;;;;;5002730;28;20103;-37
2021/12/02 03:28:50;;;;;;;2.27;0.30;;;3.00;99.90;;;;;;5013261;28;20452;-36
2021/12/02 03:31:16;;;;;;;0.63;0.10;;;3.00;99.90;;;;;;5011082;28;20193;-35
2021/12/02 03:33:42;;;;;;;1.30;0.10;;;3.00;99.90;;;;;;5011204;28;20038;-37
2021/12/02 03:36:12;;;;;;;0.73;0.10;;;2.90;99.90;;;;;;5005438;28;20137;-36
2021/12/02 03:38:38;;;;;;;0.73;0.13;;;2.80;99.90;;;;;;5015665;28;20103;-36
2021/12/02 03:41:05;;;;;;;1.80;0.20;;;2.80;99.90;;;;;;5009204;28;20042;-34
2021/12/02 03:43:38;;;;;;;4.17;0.10;;;2.80;99.90;;;;;;5008295;28;20520;-36
2021/12/02 03:46:05;;;;;;;1.60;0.10;;;2.70;99.90;;;;;;5010791;28;20048;-35
2021/12/02 03:48:31;;;;;;;2.70;0.20;;;2.60;99.90;;;;;;5000689;28;20038;-36
2021/12/02 03:50:57;;;;;;;5.67;0.30;;;2.60;99.90;;;;;;5009157;28;20193;-36
2021/12/02 03:53:23;;;;;;;1.60;0.20;;;2.50;99.90;;;;;;5022311;28;20515;-37
2021/12/02 03:55:49;;;;;;;3.23;0.23;;;2.60;99.90;;;;;;5025091;28;20049;-37
2021/12/02 03:58:14;;;;;;;2.20;0.20;;;2.40;99.90;;;;;;4997917;28;20041;-37
2021/12/02 04:00:40;;;;;;;1.53;0.10;;;2.40;99.90;;;;;;5027988;28;20056;-34
2021/12/02 04:03:06;;;;;;;2.37;0.20;;;2.30;99.90;;;;;;5023364;28;20406;-36
2021/12/02 04:05:32;;;;;;;3.20;0.30;;;2.30;99.90;;;;;;5011387;28;20049;-36
2021/12/02 04:07:57;;;;;;;2.53;0.30;;;2.30;99.90;;;;;;5008477;28;20042;-36
2021/12/02 04:10:24;;;;;;;2.60;0.20;;;2.20;99.90;;;;;;5010493;28;20046;-37
2021/12/02 04:15:35;;;;;;;1.90;0.30;;;2.20;99.90;;;;;;5011907;28;20057;-37
2021/12/02 04:18:00;;;;;;;2.60;0.30;;;2.20;99.90;;;;;;4984345;28;20049;-36
2021/12/02 04:20:27;;;;;;;1.37;0.30;;;2.20;99.90;;;;;;5008836;28;20484;-36
2021/12/02 04:22:55;;;;;;;2.97;0.20;;;2.20;99.90;;;;;;5007935;28;20053;-36
2021/12/02 04:25:22;;;;;;;3.07;0.20;;;2.10;99.90;;;;;;5007230;28;20189;-37
2021/12/02 04:27:49;;;;;;;4.47;0.20;;;2.20;99.90;;;;;;5011320;28;20073;-35
2021/12/02 04:30:17;;;;;;;2.87;0.40;;;2.10;99.90;;;;;;5009942;28;20046;-36
2021/12/02 04:32:43;;;;;;;8.10;0.50;;;2.10;99.90;;;;;;5036636;28;20053;-36
2021/12/02 04:35:09;;;;;;;2.73;0.30;;;2.20;99.90;;;;;;4988616;28;20043;-37
2021/12/02 04:37:35;;;;;;;5.00;0.40;;;2.20;99.90;;;;;;4980851;28;20049;-37
2021/12/02 04:40:01;;;;;;;3.10;0.40;;;2.20;99.90;;;;;;4991098;28;20042;-37
2021/12/02 04:42:27;;;;;;;5.60;0.50;;;2.20;99.90;;;;;;4989718;28;20050;-36
2021/12/02 04:44:52;;;;;;;3.83;0.43;;;2.20;99.90;;;;;;4990659;28;20050;-36
2021/12/02 04:47:18;;;;;;;4.27;0.50;;;2.20;99.90;;;;;;4977649;28;20035;-36
2021/12/02 04:49:45;;;;;;;3.70;0.30;;;2.30;99.90;;;;;;4988696;28;20099;-37
2021/12/02 04:52:10;;;;;;;2.27;0.20;;;2.30;99.90;;;;;;4987168;28;20109;-35
2021/12/02 04:54:36;;;;;;;3.33;0.20;;;2.30;99.90;;;;;;5002925;28;20574;-35
2021/12/02 04:57:02;;;;;;;2.40;0.40;;;2.30;99.90;;;;;;4978404;28;20083;-36
2021/12/02 04:59:28;;;;;;;3.20;0.30;;;2.40;99.90;;;;;;5007052;28;20046;-36
2021/12/02 05:01:54;;;;;;;2.87;0.20;;;2.40;99.90;;;;;;5023586;28;20525;-36
2021/12/02 05:04:20;;;;;;;4.23;0.37;;;2.40;99.90;;;;;;5006959;28;20049;-36
2021/12/02 05:06:46;;;;;;;1.60;0.20;;;2.40;99.90;;;;;;5000231;28;20077;-37
2021/12/02 05:09:11;;;;;;;3.07;0.20;;;2.40;99.90;;;;;;5010961;28;20107;-36
2021/12/02 05:11:40;;;;;;;2.30;0.20;;;2.40;99.90;;;;;;5022387;28;20053;-36
2021/12/02 05:14:08;;;;;;;2.90;0.27;;;2.40;99.90;;;;;;5006871;28;20054;-37
2021/12/02 05:16:35;;;;;;;3.80;0.30;;;2.50;99.90;;;;;;5029080;28;20107;-37
2021/12/02 05:19:01;;;;;;;6.50;0.40;;;2.40;99.90;;;;;;5006489;28;20095;-35
2021/12/02 05:21:27;;;;;;;2.87;0.50;;;2.50;99.90;;;;;;5007134;28;20046;-36
2021/12/02 05:23:53;;;;;;;3.87;0.30;;;2.40;99.90;;;;;;5006818;28;20570;-37
2021/12/02 05:26:20;;;;;;;4.63;0.30;;;2.40;99.90;;;;;;5002901;28;20044;-36
2021/12/02 05:28:46;;;;;;;1.83;0.20;;;2.40;99.90;;;;;;5006309;28;20046;-37
2021/12/02 05:31:11;;;;;;;4.77;0.37;;;2.40;99.90;;;;;;5009212;28;20556;-37
2021/12/02 05:33:37;;;;;;;3.53;0.20;;;2.40;99.90;;;;;;5006272;28;20468;-36
2021/12/02 05:36:03;;;;;;;4.17;0.40;;;2.40;99.90;;;;;;5009177;28;20153;-37
2021/12/02 05:38:29;;;;;;;2.77;0.40;;;2.30;99.90;;;;;;4996786;28;20405;-36
2021/12/02 05:40:54;;;;;;;5.23;0.30;;;2.30;99.90;;;;;;5038482;28;20100;-36
2021/12/02 05:43:20;;;;;;;3.00;0.37;;;2.30;99.90;;;;;;5006481;28;20049;-35
2021/12/02 05:45:46;;;;;;;2.73;0.27;;;2.30;99.90;;;;;;5008990;28;20057;-36
2021/12/02 05:48:12;;;;;;;1.40;0.20;;;2.20;99.90;;;;;;4986671;28;20213;-36
2021/12/02 05:50:38;;;;;;;2.30;0.20;;;2.30;99.90;;;;;;4987295;28;20100;-36
2021/12/02 05:53:03;;;;;;;4.03;0.43;;;2.20;99.90;;;;;;5008567;28;20513;-37
2021/12/02 05:55:29;;;;;;;3.67;0.37;;;2.30;99.90;;;;;;5006768;28;20053;-37
2021/12/02 05:57:55;;;;;;;3.90;0.63;;;2.20;99.90;;;;;;5009365;28;20140;-36
2021/12/02 06:00:21;;;;;;;3.57;0.40;;;2.20;99.90;;;;;;5008608;28;20057;-37
2021/12/02 06:02:47;;;;;;;1.43;0.20;;;2.00;99.90;;;;;;5003495;28;20096;-36
2021/12/02 06:05:21;;;;;;;2.93;0.20;;;2.20;99.90;;;;;;5018912;28;20049;-36
2021/12/02 06:07:52;;;;;;;2.43;0.30;;;2.20;99.90;;;;;;4999329;28;20042;-36
2021/12/02 06:10:19;;;;;;;4.10;0.40;;;2.20;99.90;;;;;;5021372;28;20049;-36
2021/12/02 06:12:45;;;;;;;3.40;0.60;;;2.20;99.90;;;;;;5020515;28;20056;-36
2021/12/02 06:15:12;;;;;;;6.60;0.53;;;2.20;99.90;;;;;;5009666;28;20049;-36
2021/12/02 06:17:37;;;;;;;6.63;0.67;;;2.20;99.90;;;;;;5011325;28;20057;-36
2021/12/02 06:20:07;;;;;;;6.23;0.80;;;2.20;99.90;;;;;;5025247;28;20029;-36
2021/12/02 06:22:33;;;;;;;4.07;0.30;;;2.30;99.90;;;;;;5023903;28;20041;-35
2021/12/02 06:27:31;;;;;;;3.63;0.30;;;2.30;99.90;;;;;;5013358;28;20076;-35
2021/12/02 06:29:57;;;;;;;0.80;0.20;;;2.30;99.90;;;;;;5007115;28;20104;-36
2021/12/02 06:32:23;;;;;;;1.47;0.20;;;2.30;99.90;;;;;;5019657;28;20411;-35
2021/12/02 06:34:48;;;;;;;2.37;0.43;;;2.30;99.90;;;;;;5022494;28;20059;-36
2021/12/02 06:37:14;;;;;;;1.03;0.20;;;2.30;99.90;;;;;;5013052;28;20045;-37
2021/12/02 06:39:40;;;;;;;4.00;0.30;;;2.30;99.90;;;;;;5026722;28;20044;-36
2021/12/02 06:42:05;;;;;;;2.73;0.20;;;2.30;99.90;;;;;;5030530;28;20420;-35
2021/12/02 06:44:32;;;;;;;1.73;0.20;;;2.30;99.90;;;;;;5029364;28;20111;-36
2021/12/02 06:46:58;;;;;;;3.17;0.30;;;2.30;99.90;;;;;;5017466;28;20108;-36
2021/12/02 06:49:24;;;;;;;3.97;0.27;;;2.30;99.90;;;;;;5030168;28;20599;-36
2021/12/02 06:51:50;;;;;;;2.10;0.30;;;2.30;99.90;;;;;;5030250;28;20091;-36
2021/12/02 06:54:15;;;;;;;1.00;0.10;;;2.30;99.90;;;;;;5020731;28;20389;-36
2021/12/02 06:56:41;;;;;;;3.67;0.50;;;2.30;99.90;;;;;;5020992;28;20056;-36
2021/12/02 06:59:07;;;;;;;1.67;0.20;;;2.30;99.90;;;;;;5013548;28;20134;-36
2021/12/02 07:01:34;;;;;;;1.57;0.30;;;2.40;99.90;;;;;;5011163;28;20042;-36
2021/12/02 07:04:00;;;;;;;4.07;0.43;;;2.30;99.90;;;;;;5020113;28;20107;-36
2021/12/02 07:06:25;;;;;;;2.70;0.70;;;2.30;99.90;;;;;;5019673;28;20891;-35
2021/12/02 07:08:51;;;;;;;3.37;0.87;;;2.30;99.90;;;;;;5013441;28;20046;-37
2021/12/02 07:11:17;;;;;;;2.83;0.40;;;2.20;99.90;;;;;;4995774;28;20141;-35
2021/12/02 07:13:43;;;;;;;2.47;0.30;;;2.30;99.90;;;;;;5006506;28;20065;-36
2021/12/02 07:16:08;;;;;;;3.77;0.60;;;2.20;99.90;;;;;;4986319;28;20450;-33
2021/12/02 07:18:42;;;;;;;3.13;0.63;;;2.20;99.90;;;;;;5001147;28;20122;-36
2021/12/02 07:21:07;;;;;;;5.90;0.67;;;2.20;99.90;;;;;;5027372;28;20049;-35
2021/12/02 07:23:33;;;;;;;3.80;0.70;;;2.20;99.90;;;;;;5010382;28;20421;-36
2021/12/02 07:25:59;;;;;;;3.07;0.67;;;2.20;99.90;;;;;;5013382;28;20485;-36
2021/12/02 07:28:26;;;;;;;4.77;0.70;;;2.10;99.90;;;;;;4991528;28;20054;-37
2021/12/02 07:30:53;;;;;;;4.73;1.17;;;2.10;99.90;;;;;;4999353;28;20046;-37
2021/12/02 07:33:20;;;;;;;5.20;0.87;;;2.20;99.90;;;;;;5000785;28;20044;-37
2021/12/02 07:35:47;;;;;;;5.17;1.40;;;2.20;99.90;;;;;;5013794;28;20127;-36
2021/12/02 07:38:14;;;;;;;7.63;1.17;;;2.10;99.90;;;;;;5001434;28;20046;-34
2021/12/02 07:40:41;;;;;;;4.30;0.77;;;2.20;99.90;;;;;;5013729;28;20108;-37
2021/12/02 07:43:07;;;;;;;5.30;0.60;;;2.20;99.90;;;;;;5027477;28;20170;-33
2021/12/02 07:45:36;;;;;;;1.97;0.30;;;2.10;99.90;;;;;;5011838;28;20512;-36
2021/12/02 07:48:04;;;;;;;4.97;0.60;;;2.20;99.90;;;;;;5004258;28;20465;-36
2021/12/02 07:50:30;;;;;;;4.43;1.13;;;2.10;99.90;;;;;;5008679;28;20041;-37
2021/12/02 07:52:59;;;;;;;3.73;1.00;;;2.20;99.90;;;;;;5007277;28;20064;-34
2021/12/02 07:55:26;;;;;;;3.40;1.40;;;2.20;99.90;;;;;;4986959;28;20505;-37
2021/12/02 07:57:53;;;;;;;4.13;1.47;;;2.10;99.90;;;;;;5003951;28;20057;-36
2021/12/02 08:00:21;;;;;;;3.57;1.80;;;2.10;99.90;;;;;;5027241;28;20506;-37
2021/12/02 08:02:50;;;;;;;4.53;1.97;;;2.10;99.90;;;;;;5010557;28;20038;-35
2021/12/02 08:05:17;;;;;;;5.57;2.17;;;2.10;99.90;;;;;;5001652;28;20054;-36
2021/12/02 08:07:44;;;;;;;6.03;1.97;;;2.10;99.90;;;;;;4996850;28;20128;-36
2021/12/02 08:10:13;;;;;;;3.20;1.83;;;2.10;99.90;;;;;;5022845;28;20049;-33
2021/12/02 08:12:45;;;;;;;3.53;1.70;;;2.10;99.90;;;;;;5020496;28;20042;-37
2021/12/02 08:15:11;;;;;;;2.60;1.60;;;2.00;99.90;;;;;;5020939;28;20157;-36
2021/12/02 08:17:37;;;;;;;3.47;1.53;;;2.00;99.90;;;;;;5008036;28;20125;-37
2021/12/02 08:20:03;;;;;;;4.57;1.77;;;2.00;99.90;;;;;;5019876;28;20046;-33
2021/12/02 08:22:31;;;;;;;3.80;1.60;;;2.00;99.90;;;;;;5013266;28;20049;-37
2021/12/02 08:24:57;;;;;;;4.40;1.40;;;2.10;99.90;;;;;;5015733;28;20049;-35
2021/12/02 08:27:23;;;;;;;3.60;1.67;;;2.10;99.90;;;;;;5011499;28;20048;-37
2021/12/02 08:29:49;;;;;;;3.47;1.40;;;2.10;99.90;;;;;;5019579;28;20045;-36
2021/12/02 08:32:14;;;;;;;5.40;1.13;;;2.10;99.90;;;;;;5016837;28;20041;-37
2021/12/02 08:34:40;;;;;;;4.53;1.37;;;2.10;99.90;;;;;;5016309;28;20097;-36
2021/12/02 08:37:09;;;;;;;7.03;1.00;;;2.20;99.90;;;;;;5007769;28;20081;-37
2021/12/02 08:39:34;;;;;;;5.07;0.67;;;2.20;99.90;;;;;;5017251;28;20053;-35
2021/12/02 08:42:02;;;;;;;3.17;0.73;;;2.20;99.90;;;;;;5016163;28;20463;-36
2021/12/02 08:44:30;;;;;;;3.07;0.73;;;2.20;99.90;;;;;;5017774;28;20883;-35
2021/12/02 08:46:56;;;;;;;3.53;0.80;;;2.30;99.90;;;;;;5007449;28;20054;-36
2021/12/02 08:49:23;;;;;;;4.30;0.60;;;2.30;99.90;;;;;;5016119;28;20107;-36
2021/12/02 08:51:49;;;;;;;7.97;0.60;;;2.30;99.90;;;;;;5014128;28;20049;-36
2021/12/02 08:54:15;;;;;;;2.83;0.40;;;2.30;99.90;;;;;;5017595;28;20548;-36
2021/12/02 08:56:41;;;;;;;3.80;0.50;;;2.30;99.90;;;;;;5006220;28;20074;-36
2021/12/02 08:59:07;;;;;;;7.33;0.60;;;2.40;99.90;;;;;;5017053;28;20040;-36
2021/12/02 09:01:34;;;;;;;2.30;0.40;;;2.40;99.90;;;;;;5016183;28;20476;-36
2021/12/02 09:04:02;;;;;;;3.13;0.50;;;2.40;99.90;;;;;;5011880;28;20069;-35
2021/12/02 09:06:29;;;;;;;8.00;0.50;;;2.40;99.90;;;;;;5002174;28;20110;-36
2021/12/02 09:08:57;;;;;;;5.10;0.57;;;2.40;99.90;;;;;;5016174;28;20383;-36
2021/12/02 09:11:23;;;;;;;2.87;0.40;;;2.40;99.90;;;;;;5018183;28;20455;-36
2021/12/02 09:13:49;;;;;;;2.67;0.30;;;2.40;99.90;;;;;;5014465;28;20061;-35
2021/12/02 09:16:14;;;;;;;2.17;0.30;;;2.40;99.90;;;;;;5006430;28;20089;-36
2021/12/02 09:18:40;;;;;;;5.97;0.63;;;2.40;99.90;;;;;;5016508;28;20139;-36
2021/12/02 09:21:07;;;;;;;3.77;0.60;;;2.40;99.90;;;;;;5017262;28;20397;-35
2021/12/02 09:23:33;;;;;;;2.10;0.30;;;2.40;99.90;;;;;;5017990;28;20041;-36
2021/12/02 09:25:59;;;;;;;5.00;0.40;;;2.40;99.90;;;;;;5018557;28;20497;-36
2021/12/02 09:28:25;;;;;;;2.93;0.30;;;2.50;99.90;;;;;;5007135;28;20056;-36
2021/12/02 09:30:51;;;;;;;6.93;0.50;;;2.50;99.90;;;;;;5016095;28;20568;-36
2021/12/02 09:33:17;;;;;;;3.17;0.50;;;2.50;99.90;;;;;;5017674;28;20577;-37
2021/12/02 09:35:43;;;;;;;1.40;0.40;;;2.50;99.90;;;;;;5014006;28;20049;-37
2021/12/02 09:38:10;;;;;;;4.00;0.60;;;2.50;99.90;;;;;;5006479;28;20148;-36
2021/12/02 09:40:37;;;;;;;3.80;1.00;;;2.60;99.90;;;;;;5016871;28;20505;-36
2021/12/02 09:43:03;;;;;;;5.23;0.80;;;2.60;99.90;;;;;;5032902;28;21193;-35
2021/12/02 09:45:29;;;;;;;2.67;0.50;;;2.70;99.90;;;;;;5015102;28;20042;-36
2021/12/02 09:47:56;;;;;;;2.57;0.20;;;2.70;99.90;;;;;;5003030;28;20056;-36
2021/12/02 09:50:35;;;;;;;3.03;0.30;;;2.70;99.90;;;;;;5015907;28;20052;-37
2021/12/02 09:53:09;;;;;;;2.43;0.20;;;2.70;99.90;;;;;;5017329;28;20081;-37
2021/12/02 09:55:48;;;;;;;1.23;0.20;;;2.80;99.90;;;;;;5014441;28;20424;-36
2021/12/02 09:58:20;;;;;;;0.43;0.10;;;2.60;99.90;;;;;;5028246;28;20520;-36
2021/12/02 10:00:51;;;;;;;1.93;0.10;;;2.60;99.90;;;;;;4999380;28;20262;-37
2021/12/02 10:05:54;;;;;;;2.23;0.40;;;2.60;99.90;;;;;;5013933;28;20041;-34
2021/12/02 10:08:27;;;;;;;1.70;0.20;;;2.60;99.90;;;;;;5003981;28;20041;-36
2021/12/02 10:10:57;;;;;;;1.77;0.50;;;2.60;99.90;;;;;;5012274;28;20050;-35
2021/12/02 10:13:29;;;;;;;3.33;0.40;;;2.60;99.90;;;;;;5011572;28;20100;-35
2021/12/02 10:16:04;;;;;;;2.03;0.20;;;2.60;99.90;;;;;;5013962;28;20045;-36
2021/12/02 10:19:11;;;;;;;1.57;0.50;;;2.60;99.90;;;;;;5004333;28;20116;-35
2021/12/02 10:21:46;;;;;;;2.90;0.30;;;2.60;99.90;;;;;;5012760;28;20140;-36
2021/12/02 10:24:16;;;;;;;1.07;0.20;;;2.60;99.90;;;;;;5008449;28;20037;-36
2021/12/02 10:26:49;;;;;;;3.70;0.55;;;2.60;99.90;;;;;;5001145;28;20060;-36
2021/12/02 10:29:37;;;;;;;4.30;0.50;;;2.60;99.90;;;;;;5009956;28;20076;-36
2021/12/02 10:32:16;;;;;;;0.97;0.20;;;2.60;99.90;;;;;;5014107;28;20444;-36
2021/12/02 10:34:46;;;;;;;1.93;0.37;;;2.60;99.90;;;;;;5008199;28;20053;-36
2021/12/02 10:37:12;;;;;;;5.17;0.40;;;2.60;99.90;;;;;;5006840;28;20046;-34
2021/12/02 10:39:37;;;;;;;1.53;0.43;;;2.50;99.90;;;;;;5015781;28;20133;-37
2021/12/02 10:42:09;;;;;;;3.00;1.40;;;2.50;99.90;;;;;;5008813;28;20453;-33
2021/12/02 10:44:36;;;;;;;2.45;0.80;;;2.50;99.90;;;;;;5014712;28;20528;-37
2021/12/02 10:47:15;;;;;;;2.00;0.50;;;2.50;99.90;;;;;;5002908;28;20864;-36
2021/12/02 10:49:50;;;;;;;1.13;0.50;;;2.50;99.90;;;;;;5010585;28;20056;-35
2021/12/02 10:52:21;;;;;;;3.90;0.70;;;2.50;99.90;;;;;;5009151;28;20046;-36
2021/12/02 10:54:52;;;;;;;2.55;0.22;;;2.50;99.90;;;;;;5014108;28;20053;-36
2021/12/02 10:57:23;;;;;;;2.13;0.25;;;2.50;99.90;;;;;;5004642;28;20089;-36
2021/12/02 10:59:53;;;;;;;;;;;2.50;99.90;;;;;;5009613;28;20121;-37
2021/12/02 11:02:48;;;;;;;0.80;0.27;;;2.50;99.90;;;;;;5011295;28;20051;-37
2021/12/02 11:05:22;;;;;;;2.37;0.30;;;2.50;99.90;;;;;;5014910;28;20069;-36
2021/12/02 11:07:58;;;;;;;1.37;0.30;;;2.50;99.90;;;;;;5001787;28;20057;-36
2021/12/02 11:10:26;;;;;;;3.17;0.20;;;2.50;99.90;;;;;;5013933;28;20045;-37
2021/12/02 11:12:53;;;;;;;2.50;0.30;;;2.60;99.90;;;;;;5009266;28;20089;-36
2021/12/02 11:15:22;;;;;;;1.70;0.27;;;2.50;99.90;;;;;;5011357;28;20042;-36
2021/12/02 11:17:53;;;;;;;1.23;0.20;;;2.50;99.90;;;;;;5002519;28;20484;-36
2021/12/02 11:20:23;;;;;;;;;;;2.50;99.90;;;;;;5010403;28;20038;-36
2021/12/02 11:23:06;;;;;;;2.27;0.30;;;2.40;99.90;;;;;;5012058;28;19944;-35
2021/12/02 11:25:35;;;;;;;2.20;0.10;;;2.40;99.90;;;;;;5013832;28;20077;-36
2021/12/02 11:28:08;;;;;;;2.13;0.20;;;2.40;99.90;;;;;;5032422;28;20081;-35
2021/12/02 11:30:36;;;;;;;5.40;0.40;;;2.40;99.90;;;;;;5016269;28;20490;-37
2021/12/02 11:33:04;;;;;;;1.00;0.20;;;2.40;99.90;;;;;;5018190;28;20046;-36
2021/12/02 11:35:33;;;;;;;2.07;0.27;;;2.30;99.90;;;;;;5012458;28;20056;-36
2021/12/02 11:38:04;;;;;;;1.90;0.10;;;2.30;99.90;;;;;;5003873;28;20169;-36
2021/12/02 11:40:36;;;;;;;4.25;0.10;;;2.30;99.90;;;;;;5017072;28;20060;-36
2021/12/02 11:43:03;;;;;;;1.50;0.20;;;2.30;99.90;;;;;;5014650;28;20037;-36
2021/12/02 11:45:32;;;;;;;2.33;0.20;;;2.20;99.90;;;;;;5011598;28;20041;-36
2021/12/02 11:47:58;;;;;;;2.00;0.30;;;2.30;99.90;;;;;;5004116;28;20076;-36
2021/12/02 11:50:27;;;;;;;0.93;0.10;;;2.20;99.90;;;;;;5016369;28;20688;-36
2021/12/02 11:52:53;;;;;;;3.17;0.40;;;2.20;99.90;;;;;;5012568;28;20152;-36
2021/12/02 11:55:31;;;;;;;1.17;0.10;;;2.20;99.90;;;;;;5010637;28;20053;-36
2021/12/02 11:57:58;;;;;;;2.07;0.20;;;2.20;99.90;;;;;;5003221;28;20045;-35
2021/12/02 12:00:25;;;;;;;1.20;0.30;;;2.20;99.90;;;;;;5012468;28;20046;-35
2021/12/02 12:03:03;;;;;;;1.80;0.27;;;2.20;99.90;;;;;;5012788;28;20049;-37
2021/12/02 12:05:53;;;;;;;1.07;0.20;;;2.20;99.90;;;;;;5013076;28;20057;-35
2021/12/02 12:08:38;;;;;;;1.97;0.30;;;2.30;99.90;;;;;;5007928;28;20085;-35
2021/12/02 12:11:23;;;;;;;1.97;0.23;;;2.40;99.90;;;;;;5024815;28;20037;-35
2021/12/02 12:13:58;;;;;;;1.60;0.47;;;2.40;99.90;;;;;;5011357;28;20401;-37
2021/12/02 12:16:32;;;;;;;0.93;0.20;;;2.50;99.90;;;;;;5002117;28;20558;-35
2021/12/02 12:19:18;;;;;;;1.77;0.10;;;2.50;99.90;;;;;;5010183;28;20052;-37
2021/12/02 12:21:54;;;;;;;2.93;0.40;;;2.60;99.90;;;;;;5011893;28;20046;-36
2021/12/02 12:24:48;;;;;;;1.63;0.23;;;2.60;99.90;;;;;;5011256;28;20045;-35
2021/12/02 12:27:21;;;;;;;3.70;0.40;;;2.60;99.90;;;;;;5007889;28;20077;-36
2021/12/02 12:30:10;;;;;;;1.47;0.17;;;2.60;99.90;;;;;;4982954;28;20049;-35
2021/12/02 12:32:45;;;;;;;1.60;0.27;;;2.50;99.90;;;;;;4996970;28;20445;-36
2021/12/02 12:35:58;;;;;;;1.50;0.30;;;2.50;99.90;;;;;;5018475;28;20056;-34
2021/12/02 12:38:26;;;;;;;1.10;0.10;;;2.50;99.90;;;;;;5001163;28;20605;-35
2021/12/02 12:40:56;;;;;;;2.10;0.10;;;2.60;99.90;;;;;;5009397;28;20049;-37
2021/12/02 12:43:30;;;;;;;0.70;0.20;;;2.60;99.90;;;;;;5010582;28;20062;-36
2021/12/02 12:46:12;;;;;;;0.83;0.10;;;2.60;99.90;;;;;;5015314;28;20103;-36
2021/12/02 12:48:38;;;;;;;1.53;0.20;;;2.70;99.90;;;;;;5014395;28;20081;-36
2021/12/02 12:51:31;;;;;;;2.03;0.20;;;2.60;99.90;;;;;;5019387;28;20077;-35
2021/12/02 12:53:59;;;;;;;1.97;0.20;;;2.60;99.90;;;;;;5015784;28;20114;-35
2021/12/02 12:56:38;;;;;;;1.10;0.10;;;2.60;99.90;;;;;;5006140;28;20471;-36
2021/12/02 12:59:16;;;;;;;0.33;0.00;;;2.60;99.90;;;;;;5015376;28;20497;-36
2021/12/02 13:01:58;;;;;;;1.37;0.10;;;2.70;99.90;;;;;;5018547;28;20046;-35
2021/12/02 13:04:26;;;;;;;2.88;0.20;;;2.70;99.90;;;;;;5016269;28;20076;-36
2021/12/02 13:07:16;;;;;;;0.50;0.07;;;2.70;99.90;;;;;;5006504;28;20516;-36
2021/12/02 13:12:20;;;;;;;2.10;0.20;;;2.70;99.90;;;;;;5015351;28;20649;-36
2021/12/02 13:14:48;;;;;;;2.10;0.30;;;2.70;99.90;;;;;;5013153;28;20073;-35
2021/12/02 13:18:08;;;;;;;1.60;0.30;;;2.70;99.90;;;;;;5006015;28;20463;-37
2021/12/02 13:20:37;;;;;;;3.27;0.30;;;2.70;99.90;;;;;;4979800;28;20525;-35
2021/12/02 13:23:31;;;;;;;3.03;0.30;;;2.70;99.90;;;;;;5007571;28;20069;-36
2021/12/02 13:26:01;;;;;;;1.77;0.37;;;2.70;99.90;;;;;;5045676;28;20050;-36
2021/12/02 13:28:34;;;;;;;2.53;0.10;;;2.70;99.90;;;;;;5006649;28;20045;-36
2021/12/02 13:31:04;;;;;;;2.90;0.27;;;2.80;99.90;;;;;;5015721;28;20061;-36